Time;durP1;ratioP1;P1;durP2;ratioP2;P2;SDS_P1;SDS_P2;PMS_P1;PMS_P2;Temp;Humidity;BMP_temperature;BMP_pressure;BME280_temperature;BME280_humidity;BME280_pressure;Samples;Min_cycle;Max_cycle;Signal;HPM_P1;HPM_P2
2023/02/05 00:00:44;;;;;;;11.65;5.63;;;;;;;1.12;100.00;99231.38;5057649;28;20098;-63
2023/02/05 00:03:11;;;;;;;13.32;6.35;;;;;;;1.09;100.00;99237.00;5058545;28;20111;-62
2023/02/05 00:05:38;;;;;;;13.35;5.25;;;;;;;1.04;100.00;99220.59;5059953;28;20076;-63
2023/02/05 00:08:04;;;;;;;14.27;5.70;;;;;;;0.93;100.00;99218.94;5059751;28;20079;-63
2023/02/05 00:10:31;;;;;;;11.00;5.40;;;;;;;1.01;100.00;99219.03;5053804;28;20106;-63
2023/02/05 00:12:57;;;;;;;10.43;5.30;;;;;;;1.13;100.00;99221.53;5055873;28;20063;-62
2023/02/05 00:15:24;;;;;;;13.23;6.07;;;;;;;1.12;100.00;99223.38;5056913;28;20116;-62
2023/02/05 00:17:50;;;;;;;14.23;6.00;;;;;;;1.15;100.00;99214.22;5059440;28;20496;-62
2023/02/05 00:20:17;;;;;;;10.52;5.45;;;;;;;1.16;100.00;99221.25;5052388;28;20128;-63
2023/02/05 00:22:43;;;;;;;11.38;5.35;;;;;;;1.23;100.00;99214.34;5056057;28;20079;-62
2023/02/05 00:25:09;;;;;;;10.32;5.50;;;;;;;1.11;100.00;99219.00;5065937;28;20134;-63
2023/02/05 00:27:36;;;;;;;12.25;6.10;;;;;;;1.19;100.00;99212.09;5057076;28;20067;-63
2023/02/05 00:30:03;;;;;;;14.45;5.45;;;;;;;1.05;100.00;99219.59;5057090;28;20456;-63
2023/02/05 00:32:29;;;;;;;12.60;5.47;;;;;;;0.86;100.00;99216.00;5054699;28;20036;-63
2023/02/05 00:34:56;;;;;;;10.70;5.35;;;;;;;0.86;100.00;99208.00;5062156;28;20055;-63
2023/02/05 00:37:22;;;;;;;12.95;6.18;;;;;;;1.00;100.00;99204.00;5057282;28;20118;-63
2023/02/05 00:39:49;;;;;;;13.85;5.82;;;;;;;1.02;100.00;99210.06;5040537;28;20059;-63
2023/02/05 00:42:15;;;;;;;15.88;7.30;;;;;;;1.00;100.00;99205.84;5060777;28;20661;-63
2023/02/05 00:44:42;;;;;;;16.27;6.88;;;;;;;0.98;100.00;99210.47;5059557;28;20128;-63
2023/02/05 00:47:08;;;;;;;13.18;6.85;;;;;;;0.92;100.00;99209.22;5058928;28;20486;-62
2023/02/05 00:49:35;;;;;;;15.77;6.03;;;;;;;0.89;100.00;99209.53;5058324;28;20055;-63
2023/02/05 00:52:03;;;;;;;16.48;6.88;;;;;;;0.93;100.00;99215.41;5056781;28;20072;-63
2023/02/05 00:54:30;;;;;;;12.18;5.82;;;;;;;0.93;100.00;99210.06;5060382;28;20041;-62
2023/02/05 00:56:56;;;;;;;15.05;7.15;;;;;;;0.95;100.00;99206.28;5061815;28;20041;-63
2023/02/05 00:59:23;;;;;;;11.77;5.60;;;;;;;1.14;100.00;99205.38;5055823;28;20436;-63
2023/02/05 01:01:49;;;;;;;11.38;5.40;;;;;;;1.19;100.00;99199.59;5058184;28;20044;-63
2023/02/05 01:04:18;;;;;;;15.55;5.07;;;;;;;1.32;100.00;99199.25;5057342;28;20576;-63
2023/02/05 01:06:46;;;;;;;9.52;4.72;;;;;;;1.32;100.00;99193.09;5058059;28;20539;-62
2023/02/05 01:09:12;;;;;;;12.07;5.10;;;;;;;1.39;100.00;99194.19;5054902;28;20064;-63
2023/02/05 01:11:39;;;;;;;8.93;4.68;;;;;;;1.22;100.00;99190.47;5061362;28;20036;-62
2023/02/05 01:14:05;;;;;;;14.80;5.38;;;;;;;1.03;100.00;99187.72;5056606;28;20037;-63
2023/02/05 01:16:32;;;;;;;11.00;5.68;;;;;;;0.93;100.00;99186.91;5055494;28;20036;-63
2023/02/05 01:18:59;;;;;;;12.85;5.47;;;;;;;0.85;100.00;99190.28;5057140;28;20056;-63
2023/02/05 01:21:25;;;;;;;13.73;5.75;;;;;;;0.80;100.00;99187.22;5058842;28;20044;-63
2023/02/05 01:23:53;;;;;;;11.55;5.55;;;;;;;0.78;100.00;99183.88;5056098;28;20442;-63
2023/02/05 01:26:20;;;;;;;14.30;6.50;;;;;;;0.82;100.00;99182.59;5060452;28;20041;-63
2023/02/05 01:28:47;;;;;;;11.10;5.25;;;;;;;0.77;100.00;99179.50;5056593;28;20052;-62
2023/02/05 01:31:13;;;;;;;15.38;5.57;;;;;;;0.68;100.00;99181.22;5057688;28;20041;-62
2023/02/05 01:33:40;;;;;;;12.43;5.65;;;;;;;0.59;100.00;99180.22;5055932;28;20044;-63
2023/02/05 01:36:07;;;;;;;16.63;5.45;;;;;;;0.55;100.00;99180.66;5059062;28;20040;-62
2023/02/05 01:38:33;;;;;;;12.75;5.85;;;;;;;0.48;100.00;99170.56;5053673;28;20052;-63
2023/02/05 01:41:00;;;;;;;17.27;5.53;;;;;;;0.33;100.00;99167.50;5056219;28;20135;-62
2023/02/05 01:43:27;;;;;;;10.93;4.93;;;;;;;0.30;100.00;99161.63;5053902;28;20120;-62
2023/02/05 01:45:56;;;;;;;13.93;5.50;;;;;;;0.50;100.00;99160.63;5058893;28;20040;-63
2023/02/05 01:48:28;;;;;;;10.45;4.85;;;;;;;0.37;100.00;99152.91;5057313;28;20680;-62
2023/02/05 01:51:00;;;;;;;12.27;5.13;;;;;;;0.48;100.00;99153.75;5058403;28;20441;-62
2023/02/05 01:53:32;;;;;;;15.20;5.18;;;;;;;0.45;100.00;99144.22;5048377;28;20036;-63
2023/02/05 01:56:11;;;;;;;12.82;4.85;;;;;;;0.31;100.00;99142.81;5055564;28;20049;-62
2023/02/05 01:59:02;;;;;;;14.77;5.47;;;;;;;0.38;100.00;99143.91;5056761;28;20040;-63
2023/02/05 02:01:28;;;;;;;11.20;4.38;;;;;;;0.37;100.00;99144.91;5058379;28;20044;-63
2023/02/05 02:03:58;;;;;;;12.32;5.13;;;;;;;0.26;100.00;99142.41;5059071;28;20047;-63
2023/02/05 02:06:25;;;;;;;8.65;4.53;;;;;;;0.30;100.00;99141.16;5055877;28;20186;-63
2023/02/05 02:08:51;;;;;;;11.02;4.63;;;;;;;0.15;100.00;99139.88;5058628;28;20472;-63
2023/02/05 02:11:21;;;;;;;11.88;4.53;;;;;;;0.30;100.00;99135.81;5051556;28;20554;-63
2023/02/05 02:13:50;;;;;;;11.68;4.15;;;;;;;0.33;100.00;99135.50;5050544;28;20037;-62
2023/02/05 02:16:17;;;;;;;11.55;4.07;;;;;;;0.35;100.00;99120.25;5060559;28;20057;-62
2023/02/05 02:18:45;;;;;;;14.45;5.35;;;;;;;0.56;100.00;99129.88;5054224;28;20071;-62
2023/02/05 02:21:11;;;;;;;11.02;4.97;;;;;;;0.67;100.00;99114.69;5058761;28;20052;-63
2023/02/05 02:24:05;;;;;;;10.15;5.35;;;;;;;0.77;100.00;99123.50;5056750;28;20089;-63
2023/02/05 02:27:19;;;;;;;12.65;4.82;;;;;;;0.56;100.00;99123.69;5059473;28;20037;-63
2023/02/05 02:29:49;;;;;;;11.65;4.53;;;;;;;0.21;100.00;99115.34;5048675;28;20058;-62
2023/02/05 02:32:25;;;;;;;16.73;4.93;;;;;;;0.11;100.00;99118.03;5056238;28;20075;-62
2023/02/05 02:35:04;;;;;;;13.23;4.80;;;;;;;0.20;100.00;99109.19;5055641;28;20715;-62
2023/02/05 02:37:51;;;;;;;12.30;4.78;;;;;;;0.39;100.00;99110.13;5054921;28;20730;-62
2023/02/05 02:40:26;;;;;;;14.13;4.85;;;;;;;0.55;100.00;99100.69;5052021;28;20079;-62
2023/02/05 02:43:27;;;;;;;11.75;4.72;;;;;;;0.73;100.00;99114.09;5054411;28;20032;-63
2023/02/05 02:46:05;;;;;;;10.98;5.43;;;;;;;0.80;100.00;99112.53;5048546;28;20052;-62
2023/02/05 02:48:36;;;;;;;14.13;4.18;;;;;;;0.90;100.00;99101.84;5058670;28;20044;-62
2023/02/05 02:51:06;;;;;;;9.48;4.47;;;;;;;0.88;100.00;99091.31;5061056;28;20124;-62
2023/02/05 02:53:37;;;;;;;14.23;4.82;;;;;;;0.82;100.00;99089.25;5057515;28;20391;-62
2023/02/05 02:56:05;;;;;;;13.05;4.60;;;;;;;0.76;100.00;99088.00;5055433;28;20472;-62
2023/02/05 02:58:43;;;;;;;8.80;4.50;;;;;;;0.72;100.00;99099.09;5055031;28;20106;-62
2023/02/05 03:01:11;;;;;;;11.00;4.25;;;;;;;0.90;100.00;99094.69;5059992;28;20087;-62
2023/02/05 03:03:43;;;;;;;9.63;4.05;;;;;;;0.67;100.00;99088.03;5055539;28;20040;-62
2023/02/05 03:06:11;;;;;;;;;;;;;;;0.58;100.00;99095.91;5056490;28;20098;-62
2023/02/05 03:08:56;;;;;;;12.60;4.00;;;;;;;0.61;100.00;99100.97;5054008;28;20032;-63
2023/02/05 03:11:25;;;;;;;11.15;4.07;;;;;;;0.57;100.00;99088.06;5052557;28;20040;-63
2023/02/05 03:13:54;;;;;;;12.95;4.00;;;;;;;0.55;100.00;99095.38;5056333;28;20040;-62
2023/02/05 03:16:24;;;;;;;;;;;;;;;0.49;100.00;99097.63;5052536;28;20036;-63
2023/02/05 03:18:52;;;;;;;10.65;4.55;;;;;;;0.44;100.00;99102.53;5053295;28;20362;-63
2023/02/05 03:21:29;;;;;;;11.82;5.35;;;;;;;0.30;100.00;99089.66;5054720;28;20044;-63
2023/02/05 03:23:55;;;;;;;11.30;5.78;;;;;;;0.20;100.00;99093.19;5055589;28;20037;-63
2023/02/05 03:26:31;;;;;;;9.60;4.38;;;;;;;0.13;100.00;99097.41;5057492;28;20040;-63
2023/02/05 03:29:16;;;;;;;11.45;4.47;;;;;;;0.21;100.00;99086.03;5046756;28;20500;-63
2023/02/05 03:32:02;;;;;;;14.15;5.45;;;;;;;0.21;100.00;99078.03;5053228;28;20052;-62
2023/02/05 03:34:44;;;;;;;15.25;5.07;;;;;;;0.28;100.00;99076.50;5054126;28;20838;-63
2023/02/05 03:37:46;;;;;;;12.25;5.35;;;;;;;0.19;100.00;99072.03;5050076;28;20139;-63
2023/02/05 03:40:41;;;;;;;16.05;5.53;;;;;;;0.12;100.00;99066.44;5051767;28;20037;-62
2023/02/05 03:43:29;;;;;;;13.20;5.22;;;;;;;0.16;100.00;99056.31;5054607;28;20033;-62
2023/02/05 03:46:21;;;;;;;10.02;4.63;;;;;;;0.15;100.00;99073.28;5048766;28;20041;-62
2023/02/05 03:49:01;;;;;;;15.20;6.18;;;;;;;0.32;100.00;99072.56;5055815;28;20049;-62
2023/02/05 03:51:45;;;;;;;10.52;5.65;;;;;;;0.27;100.00;99079.28;5056960;28;20040;-62
2023/02/05 03:54:28;;;;;;;11.52;5.15;;;;;;;0.10;100.00;99073.69;5059651;28;20037;-63
2023/02/05 03:57:21;;;;;;;13.65;5.18;;;;;;;0.15;100.00;99067.97;5062803;28;20054;-62
2023/02/05 03:59:49;;;;;;;9.80;4.80;;;;;;;0.18;100.00;99063.19;5056773;28;20041;-62
2023/02/05 04:02:16;;;;;;;11.73;4.90;;;;;;;-0.09;100.00;99055.91;5055395;28;20439;-62
2023/02/05 04:04:45;;;;;;;10.50;4.50;;;;;;;-0.18;100.00;99055.78;5063804;28;20089;-62
2023/02/05 04:07:12;;;;;;;15.52;5.00;;;;;;;-0.14;100.00;99059.84;5054212;28;20052;-62
2023/02/05 04:09:39;;;;;;;11.40;5.13;;;;;;;-0.08;100.00;99062.94;5051222;28;20055;-63
2023/02/05 04:12:06;;;;;;;11.02;4.50;;;;;;;-0.03;100.00;99055.38;5057669;28;20094;-62
2023/02/05 04:14:34;;;;;;;10.43;4.80;;;;;;;0.13;100.00;99060.09;5057704;28;20033;-62
2023/02/05 04:17:01;;;;;;;12.50;4.57;;;;;;;0.14;100.00;99063.63;5057051;28;20086;-63
2023/02/05 04:19:28;;;;;;;11.98;5.00;;;;;;;0.19;100.00;99059.53;5054465;28;20059;-63
2023/02/05 04:21:58;;;;;;;16.08;5.10;;;;;;;0.25;100.00;99058.97;5057576;28;20098;-63
2023/02/05 04:24:24;;;;;;;11.23;4.72;;;;;;;0.28;100.00;99062.31;5055940;28;20136;-63
2023/02/05 04:26:51;;;;;;;13.40;4.72;;;;;;;0.22;100.00;99055.75;5056669;28;20521;-62
2023/02/05 04:29:18;;;;;;;8.75;4.85;;;;;;;0.24;100.00;99064.44;5053491;28;20408;-62
2023/02/05 04:31:48;;;;;;;11.35;5.53;;;;;;;0.08;100.00;99065.84;5059087;28;20112;-62
2023/02/05 04:34:15;;;;;;;14.25;5.22;;;;;;;0.07;100.00;99066.03;5054933;28;20041;-63
2023/02/05 04:36:41;;;;;;;12.88;5.60;;;;;;;0.12;100.00;99059.25;5056665;28;20052;-63
2023/02/05 04:39:08;;;;;;;10.52;5.07;;;;;;;0.17;100.00;99060.66;5062246;28;20578;-63
2023/02/05 04:41:34;;;;;;;13.18;4.78;;;;;;;0.17;100.00;99069.50;5063516;28;20047;-63
2023/02/05 04:44:01;;;;;;;14.60;6.13;;;;;;;-0.03;100.00;99069.50;5058246;28;20057;-63
2023/02/05 04:46:27;;;;;;;14.82;5.55;;;;;;;0.04;100.00;99071.63;5061689;28;20048;-63
2023/02/05 04:48:54;;;;;;;13.40;5.38;;;;;;;-0.05;100.00;99073.28;5056078;28;20531;-63
2023/02/05 04:51:20;;;;;;;15.15;6.25;;;;;;;-0.09;100.00;99072.75;5063158;28;20075;-63
2023/02/05 04:53:47;;;;;;;13.25;5.65;;;;;;;-0.11;100.00;99074.69;5059989;28;20051;-62
2023/02/05 04:56:15;;;;;;;14.38;5.63;;;;;;;-0.01;100.00;99075.56;5062568;28;20123;-62
2023/02/05 04:58:42;;;;;;;14.70;5.03;;;;;;;0.19;100.00;99062.19;5067751;28;20609;-63
2023/02/05 05:01:15;;;;;;;9.07;5.03;;;;;;;0.42;100.00;99058.34;5056978;28;20123;-62
2023/02/05 05:03:42;;;;;;;15.88;4.85;;;;;;;0.50;100.00;99064.66;5059537;28;20051;-63
2023/02/05 05:06:09;;;;;;;11.27;4.88;;;;;;;0.59;100.00;99070.94;5059997;28;20291;-63
2023/02/05 05:08:36;;;;;;;10.80;5.20;;;;;;;0.56;100.00;99070.38;5063694;28;20041;-63
2023/02/05 05:11:08;;;;;;;9.18;5.03;;;;;;;0.61;100.00;99081.44;5054957;28;20073;-62
2023/02/05 05:13:35;;;;;;;9.90;5.28;;;;;;;0.37;100.00;99072.97;5059439;28;20093;-62
2023/02/05 05:16:03;;;;;;;13.65;5.55;;;;;;;0.36;100.00;99070.44;5060578;28;20052;-63
2023/02/05 05:18:30;;;;;;;11.45;5.18;;;;;;;0.61;100.00;99076.97;5063578;28;20047;-63
2023/02/05 05:20:57;;;;;;;15.63;5.65;;;;;;;0.51;100.00;99074.31;5061450;28;20052;-63
2023/02/05 05:23:23;;;;;;;11.88;5.40;;;;;;;0.57;100.00;99069.41;5064263;28;20036;-62
2023/02/05 05:25:50;;;;;;;11.40;4.90;;;;;;;0.64;100.00;99071.34;5059714;28;20394;-62
2023/02/05 05:28:17;;;;;;;10.88;5.20;;;;;;;0.64;100.00;99065.16;5065721;28;20736;-62
2023/02/05 05:30:44;;;;;;;16.95;5.97;;;;;;;0.58;100.00;99065.72;5059139;28;20123;-63
2023/02/05 05:33:11;;;;;;;17.10;5.75;;;;;;;0.58;100.00;99057.75;5062527;28;20037;-62
2023/02/05 05:35:38;;;;;;;10.95;5.70;;;;;;;0.52;100.00;99060.00;5061081;28;20036;-63
2023/02/05 05:38:05;;;;;;;13.57;5.90;;;;;;;0.50;100.00;99072.66;5064111;28;20078;-62
2023/02/05 05:46:06;;;;;;;13.10;5.82;;;;;;;0.30;100.00;99065.69;5059929;28;20687;-62
2023/02/05 05:48:33;;;;;;;12.07;5.75;;;;;;;0.27;100.00;99063.31;5062086;28;20119;-62
2023/02/05 05:50:59;;;;;;;13.38;5.88;;;;;;;0.24;100.00;99051.13;5062330;28;20078;-62
2023/02/05 05:53:26;;;;;;;9.85;5.07;;;;;;;0.22;100.00;99045.09;5064638;28;21950;-62
2023/02/05 05:55:52;;;;;;;13.70;5.38;;;;;;;0.28;100.00;99041.84;5059925;28;20567;-62
2023/02/05 05:58:18;;;;;;;11.63;4.90;;;;;;;0.32;100.00;99043.25;5071578;28;20040;-62
2023/02/05 06:00:45;;;;;;;13.07;5.03;;;;;;;0.56;100.00;99044.59;5064990;28;20040;-62
2023/02/05 06:03:12;;;;;;;10.90;5.15;;;;;;;0.57;100.00;99054.25;5062496;28;20033;-63
2023/02/05 06:05:38;;;;;;;13.60;5.35;;;;;;;0.56;100.00;99060.56;5057651;28;20559;-63
2023/02/05 06:08:05;;;;;;;12.55;5.10;;;;;;;0.56;100.00;99057.91;5062264;28;20122;-63
2023/02/05 06:10:32;;;;;;;12.82;5.05;;;;;;;0.56;100.00;99065.06;5056402;28;20036;-62
2023/02/05 06:12:59;;;;;;;11.48;5.55;;;;;;;0.58;100.00;99063.06;5062523;28;20128;-63
2023/02/05 06:15:25;;;;;;;11.55;6.03;;;;;;;0.45;100.00;99058.94;5057064;28;20071;-63
2023/02/05 06:17:52;;;;;;;12.38;5.65;;;;;;;0.41;100.00;99062.00;5058289;28;20419;-62
2023/02/05 06:20:19;;;;;;;12.43;5.97;;;;;;;0.39;100.00;99054.16;5056498;28;20111;-62
2023/02/05 06:22:45;;;;;;;15.55;6.65;;;;;;;0.39;100.00;99051.50;5059719;28;20636;-61
2023/02/05 06:25:12;;;;;;;13.45;6.18;;;;;;;0.41;100.00;99048.69;5055939;28;20739;-61
2023/02/05 06:27:39;;;;;;;12.05;5.45;;;;;;;0.45;100.00;99050.09;5062244;28;20051;-60
2023/02/05 06:30:06;;;;;;;8.27;5.47;;;;;;;0.44;100.00;99043.91;5067865;28;20470;-61
2023/02/05 06:32:32;;;;;;;12.98;6.00;;;;;;;0.48;100.00;99047.13;5067414;28;20044;-61
2023/02/05 06:34:59;;;;;;;14.40;6.40;;;;;;;0.46;100.00;99049.94;5075187;28;20100;-61
2023/02/05 06:37:28;;;;;;;13.23;5.75;;;;;;;0.40;100.00;99045.19;5072528;28;20495;-62
2023/02/05 06:40:14;;;;;;;14.13;6.43;;;;;;;0.44;100.00;99051.91;5067195;28;20059;-61
2023/02/05 06:42:41;;;;;;;13.48;5.65;;;;;;;0.56;100.00;99043.72;5071242;28;20392;-61
2023/02/05 06:45:08;;;;;;;13.07;5.97;;;;;;;0.52;100.00;99060.00;5070394;28;20052;-60
2023/02/05 06:47:37;;;;;;;12.23;5.57;;;;;;;0.56;100.00;99057.91;5069931;28;20056;-61
2023/02/05 06:50:05;;;;;;;13.20;5.45;;;;;;;0.53;100.00;99060.88;5065791;28;20456;-58
2023/02/05 06:52:32;;;;;;;12.48;6.25;;;;;;;0.54;100.00;99054.53;5059776;28;20809;-59
2023/02/05 06:54:58;;;;;;;12.52;6.25;;;;;;;0.46;100.00;99062.41;5064689;28;20048;-61
2023/02/05 06:57:25;;;;;;;18.25;6.43;;;;;;;0.48;100.00;99061.28;5071523;28;20515;-61
2023/02/05 06:59:51;;;;;;;13.60;5.57;;;;;;;0.54;100.00;99070.53;5071027;28;20570;-52
2023/02/05 07:02:18;;;;;;;16.63;6.00;;;;;;;0.52;100.00;99078.66;5065196;28;20123;-52
2023/02/05 07:04:45;;;;;;;11.13;6.10;;;;;;;0.53;100.00;99076.84;5067545;28;20532;-53
2023/02/05 07:07:12;;;;;;;13.45;6.95;;;;;;;0.54;100.00;99083.84;5068298;28;20040;-53
2023/02/05 07:09:39;;;;;;;15.02;6.93;;;;;;;0.55;100.00;99082.03;5069063;28;20123;-55
2023/02/05 07:12:05;;;;;;;13.15;5.63;;;;;;;0.62;100.00;99083.97;5068971;28;20044;-55
2023/02/05 07:14:38;;;;;;;12.15;4.25;;;;;;;0.62;100.00;99067.13;5062645;28;20045;-55
2023/02/05 07:17:06;;;;;;;11.48;4.70;;;;;;;0.70;100.00;99079.75;5067151;28;20037;-62
2023/02/05 07:19:33;;;;;;;7.95;4.35;;;;;;;0.73;100.00;99077.63;5058688;28;20102;-62
2023/02/05 07:22:00;;;;;;;8.02;4.68;;;;;;;0.68;100.00;99063.03;5068144;28;20781;-62
2023/02/05 07:24:26;;;;;;;14.27;6.00;;;;;;;0.62;100.00;99065.31;5062629;28;20048;-62
2023/02/05 07:26:53;;;;;;;12.48;6.20;;;;;;;0.61;100.00;99055.66;5063509;28;20114;-62
2023/02/05 07:29:19;;;;;;;15.63;7.18;;;;;;;0.59;100.00;99054.13;5069022;28;20114;-62
2023/02/05 07:31:48;;;;;;;11.25;5.18;;;;;;;0.58;100.00;99053.25;5061638;28;20086;-62
2023/02/05 07:34:15;;;;;;;12.98;5.97;;;;;;;0.57;100.00;99051.59;5064029;28;20135;-63
2023/02/05 07:36:41;;;;;;;13.02;6.38;;;;;;;0.55;100.00;99045.53;5068107;28;20052;-62
2023/02/05 07:39:08;;;;;;;13.00;5.60;;;;;;;0.55;100.00;99047.38;5068917;28;20411;-63
2023/02/05 07:41:34;;;;;;;18.95;5.63;;;;;;;0.62;100.00;99043.97;5067907;28;20120;-62
2023/02/05 07:44:03;;;;;;;12.50;5.70;;;;;;;0.70;100.00;99048.56;5069530;28;20737;-63
2023/02/05 07:46:29;;;;;;;9.55;5.30;;;;;;;0.83;100.00;99045.59;5067064;28;20480;-62
2023/02/05 07:48:56;;;;;;;15.35;4.65;;;;;;;1.10;100.00;99038.56;5068558;28;20048;-63
2023/02/05 07:51:23;;;;;;;11.60;4.18;;;;;;;1.31;100.00;99037.44;5076883;28;20075;-62
2023/02/05 07:53:51;;;;;;;9.52;3.83;;;;;;;1.50;100.00;99033.81;5073570;28;20162;-62
2023/02/05 07:56:20;;;;;;;9.23;3.58;;;;;;;1.61;100.00;99027.41;5062597;28;20067;-62
2023/02/05 07:58:47;;;;;;;11.23;4.03;;;;;;;1.63;100.00;99036.13;5069915;28;20051;-62
2023/02/05 08:01:14;;;;;;;10.57;3.53;;;;;;;1.69;100.00;99043.50;5066079;28;20071;-62
2023/02/05 08:03:40;;;;;;;9.27;3.92;;;;;;;1.45;100.00;99044.09;5060892;28;20040;-62
2023/02/05 08:06:08;;;;;;;8.60;4.25;;;;;;;1.28;100.00;99051.09;5063858;28;20048;-62
2023/02/05 08:08:35;;;;;;;15.45;4.90;;;;;;;1.28;100.00;99059.09;5073951;28;20301;-63
2023/02/05 08:11:04;;;;;;;12.82;4.60;;;;;;;1.30;100.00;99057.94;5067998;28;20123;-62
2023/02/05 08:13:31;;;;;;;12.20;4.40;;;;;;;1.37;100.00;99049.38;5065349;28;20072;-62
2023/02/05 08:15:58;;;;;;;12.30;4.07;;;;;;;1.45;100.00;99053.94;5062622;28;20618;-63
2023/02/05 08:18:24;;;;;;;13.13;4.45;;;;;;;1.66;100.00;99053.66;5067865;28;20051;-63
2023/02/05 08:20:52;;;;;;;11.75;4.38;;;;;;;1.62;100.00;99049.59;5065459;28;20143;-63
2023/02/05 08:23:19;;;;;;;12.68;4.65;;;;;;;1.56;100.00;99049.19;5063700;28;20117;-63
2023/02/05 08:25:45;;;;;;;7.60;4.35;;;;;;;1.68;100.00;99041.81;5068324;28;20036;-63
2023/02/05 08:28:13;;;;;;;10.52;4.53;;;;;;;1.85;100.00;99041.13;5067544;28;20045;-63
2023/02/05 08:30:39;;;;;;;8.27;4.22;;;;;;;1.88;100.00;99038.97;5063697;28;20047;-63
2023/02/05 08:33:06;;;;;;;11.20;4.55;;;;;;;1.88;100.00;99027.47;5067653;28;21287;-63
2023/02/05 08:35:32;;;;;;;17.05;4.68;;;;;;;1.98;100.00;99027.38;5067486;28;20036;-63
2023/02/05 08:37:59;;;;;;;11.88;4.03;;;;;;;2.17;100.00;99037.00;5072182;28;20048;-63
2023/02/05 08:40:26;;;;;;;10.80;4.80;;;;;;;2.07;100.00;99039.81;5062408;28;20101;-62
2023/02/05 08:42:56;;;;;;;9.70;4.43;;;;;;;2.02;100.00;99042.06;5053478;28;20056;-62
2023/02/05 08:45:23;;;;;;;6.80;4.18;;;;;;;1.87;100.00;99039.97;5056574;28;20048;-62
2023/02/05 08:47:50;;;;;;;10.20;4.47;;;;;;;1.92;100.00;99032.31;5060405;28;20044;-63
2023/02/05 08:50:17;;;;;;;9.77;4.65;;;;;;;1.91;100.00;99014.63;5066005;28;20828;-63
2023/02/05 08:52:43;;;;;;;13.13;5.72;;;;;;;1.77;100.00;99008.00;5063433;28;20079;-64
2023/02/05 08:55:10;;;;;;;15.00;5.32;;;;;;;1.71;100.00;99005.09;5032862;28;20106;-62
2023/02/05 08:57:37;;;;;;;12.88;5.22;;;;;;;1.79;100.00;98994.50;5060643;28;20075;-63
2023/02/05 09:00:04;;;;;;;9.80;4.85;;;;;;;1.85;100.00;98985.03;5074023;28;20043;-63
2023/02/05 09:02:31;;;;;;;10.23;5.05;;;;;;;2.20;100.00;98991.28;5068343;28;20040;-62
2023/02/05 09:04:58;;;;;;;12.32;4.35;;;;;;;2.19;100.00;98987.78;5061459;28;20807;-62
2023/02/05 09:07:39;;;;;;;15.52;5.38;;;;;;;2.02;100.00;98977.94;5071713;28;20161;-62
2023/02/05 09:10:08;;;;;;;13.30;6.32;;;;;;;1.97;100.00;98975.78;5071192;28;20048;-62
2023/02/05 09:12:34;;;;;;;14.93;6.25;;;;;;;2.17;100.00;98979.06;5067478;28;20037;-62
2023/02/05 09:15:01;;;;;;;15.10;6.47;;;;;;;2.26;100.00;98965.75;5063174;28;20044;-61
2023/02/05 09:17:28;;;;;;;12.43;5.75;;;;;;;2.13;100.00;98971.53;5069367;28;20052;-60
2023/02/05 09:19:54;;;;;;;12.70;5.40;;;;;;;2.31;100.00;98971.44;5066533;28;20102;-62
2023/02/05 09:22:21;;;;;;;11.32;4.53;;;;;;;2.55;100.00;98960.03;5063322;28;20583;-61
2023/02/05 09:24:47;;;;;;;11.40;4.93;;;;;;;2.62;100.00;98962.94;5062810;28;20490;-64
2023/02/05 09:27:13;;;;;;;15.30;5.38;;;;;;;2.58;100.00;98962.38;5065197;28;20836;-62
2023/02/05 09:29:40;;;;;;;10.55;5.22;;;;;;;2.70;100.00;98965.59;5066735;28;20064;-62
2023/02/05 09:32:07;;;;;;;12.48;5.82;;;;;;;2.50;100.00;98962.34;5063139;28;20063;-63
2023/02/05 09:34:33;;;;;;;13.35;5.93;;;;;;;2.33;100.00;98959.59;5058373;28;20044;-63
2023/02/05 09:37:00;;;;;;;12.50;6.45;;;;;;;2.28;100.00;98959.25;5064990;28;20049;-61
2023/02/05 09:39:28;;;;;;;16.20;6.55;;;;;;;2.25;100.00;98948.88;5064196;28;20284;-63
2023/02/05 09:42:32;;;;;;;18.45;5.90;;;;;;;2.32;100.00;98955.25;5069832;28;20050;-63
2023/02/05 09:45:33;;;;;;;16.88;5.88;;;;;;;2.43;100.00;98951.47;5068669;28;20085;-62
2023/02/05 09:48:16;;;;;;;16.08;6.00;;;;;;;2.40;100.00;98943.75;5068594;28;20040;-62
2023/02/05 09:50:43;;;;;;;9.82;5.40;;;;;;;2.38;100.00;98950.25;5065535;28;20076;-62
2023/02/05 09:53:15;;;;;;;10.60;4.95;;;;;;;2.34;100.00;98947.94;5075401;28;20059;-63
2023/02/05 09:55:44;;;;;;;12.13;4.70;;;;;;;2.51;100.00;98949.84;5070019;28;20037;-62
2023/02/05 09:58:15;;;;;;;11.18;5.13;;;;;;;2.53;100.00;98951.34;5062275;28;20044;-62
2023/02/05 10:00:48;;;;;;;9.43;4.07;;;;;;;2.70;100.00;98949.56;5053864;28;20109;-63
2023/02/05 10:03:41;;;;;;;14.52;5.10;;;;;;;2.50;100.00;98948.16;5044732;28;20067;-63
2023/02/05 10:06:29;;;;;;;11.73;4.88;;;;;;;2.59;100.00;98950.69;5030888;28;20127;-62
2023/02/05 10:09:24;;;;;;;13.27;4.55;;;;;;;2.82;100.00;98949.28;5028710;28;20049;-64
2023/02/05 10:12:16;;;;;;;9.27;4.88;;;;;;;2.87;100.00;98944.25;5028738;28;20189;-62
2023/02/05 10:15:13;;;;;;;13.02;4.80;;;;;;;2.90;100.00;98943.09;5037091;28;20049;-61
2023/02/05 10:18:06;;;;;;;9.25;4.97;;;;;;;2.73;100.00;98946.56;5067005;28;20113;-62
2023/02/05 10:20:51;;;;;;;18.55;5.15;;;;;;;2.79;100.00;98941.56;5067199;28;20106;-61
2023/02/05 10:23:36;;;;;;;10.82;5.30;;;;;;;2.74;100.00;98931.38;5061477;28;20668;-60
2023/02/05 10:26:12;;;;;;;13.27;6.07;;;;;;;2.59;100.00;98925.81;5065783;28;20098;-62
2023/02/05 10:28:58;;;;;;;12.32;6.07;;;;;;;2.64;100.00;98925.31;5065762;28;20530;-63
2023/02/05 10:31:40;;;;;;;15.45;6.72;;;;;;;2.67;100.00;98924.97;5071896;28;20043;-64
2023/02/05 10:34:17;;;;;;;19.45;8.20;;;;;;;2.75;100.00;98900.94;5072287;28;20740;-63
2023/02/05 10:36:49;;;;;;;13.13;5.82;;;;;;;2.94;100.00;98897.13;5062017;28;20048;-64
2023/02/05 10:39:19;;;;;;;16.17;7.75;;;;;;;2.96;100.00;98900.50;5068839;28;20043;-64
2023/02/05 10:42:23;;;;;;;15.38;7.07;;;;;;;2.99;100.00;98891.28;5071007;28;20100;-60
2023/02/05 10:44:59;;;;;;;11.30;6.15;;;;;;;3.04;100.00;98890.78;5070210;28;20040;-61
2023/02/05 10:47:31;;;;;;;20.38;8.27;;;;;;;3.09;100.00;98897.31;5062410;28;20033;-60
2023/02/05 10:50:48;;;;;;;17.05;6.50;;;;;;;3.24;100.00;98899.31;5062151;28;20463;-56
2023/02/05 10:53:22;;;;;;;13.18;5.97;;;;;;;3.40;100.00;98895.84;5028182;28;20060;-62
2023/02/05 10:55:49;;;;;;;13.73;5.75;;;;;;;3.47;100.00;98904.84;5042910;28;20128;-60
2023/02/05 10:58:47;;;;;;;15.18;5.57;;;;;;;3.52;100.00;98896.31;5067459;28;20048;-62
2023/02/05 11:01:20;;;;;;;17.45;6.20;;;;;;;3.44;100.00;98899.84;5065116;28;20044;-64
2023/02/05 11:03:56;;;;;;;13.88;5.00;;;;;;;3.56;100.00;98896.81;5059444;28;20060;-59
2023/02/05 11:06:26;;;;;;;11.05;5.40;;;;;;;3.61;100.00;98886.44;5050813;28;20514;-61
2023/02/05 11:08:52;;;;;;;15.18;5.75;;;;;;;3.61;100.00;98886.44;5048613;28;20051;-61
2023/02/05 11:11:30;;;;;;;16.42;6.00;;;;;;;3.60;100.00;98882.91;5047056;28;20975;-61
2023/02/05 11:14:04;;;;;;;11.77;5.75;;;;;;;3.64;100.00;98875.38;5068147;28;20048;-63
2023/02/05 11:16:41;;;;;;;17.85;6.10;;;;;;;3.59;100.00;98875.06;5058340;28;20109;-61
2023/02/05 11:19:27;;;;;;;16.58;6.43;;;;;;;3.66;100.00;98861.81;5055963;28;20078;-59
2023/02/05 11:21:56;;;;;;;17.98;5.40;;;;;;;3.65;100.00;98852.97;5060638;28;20749;-60
2023/02/05 11:24:27;;;;;;;16.38;6.45;;;;;;;3.80;100.00;98842.38;5062861;28;20504;-61
2023/02/05 11:27:14;;;;;;;17.27;5.80;;;;;;;3.85;100.00;98847.19;5062717;28;20075;-63
2023/02/05 11:29:41;;;;;;;14.25;5.65;;;;;;;3.91;100.00;98841.19;5072549;28;20067;-63
2023/02/05 11:32:31;;;;;;;11.73;4.53;;;;;;;3.82;100.00;98848.38;5071121;28;20048;-62
2023/02/05 11:35:28;;;;;;;14.90;5.53;;;;;;;3.82;100.00;98842.19;5065742;28;20052;-63
2023/02/05 11:37:59;;;;;;;13.05;5.22;;;;;;;3.85;100.00;98848.06;5067500;28;20046;-63
2023/02/05 11:40:29;;;;;;;11.88;5.00;;;;;;;3.79;100.00;98847.91;5070005;28;20089;-63
2023/02/05 11:43:03;;;;;;;12.77;5.45;;;;;;;3.73;100.00;98844.88;5066654;28;20718;-61
2023/02/05 11:45:31;;;;;;;13.25;5.65;;;;;;;3.66;100.00;98832.34;5039817;28;20079;-61
2023/02/05 11:48:03;;;;;;;17.95;6.13;;;;;;;3.64;100.00;98835.19;5061874;28;20734;-63
2023/02/05 11:50:31;;;;;;;11.65;6.15;;;;;;;3.59;100.00;98834.88;5068171;28;20119;-61